Time;durP1;ratioP1;P1;durP2;ratioP2;P2;SDS_P1;SDS_P2;PMS_P1;PMS_P2;Temp;Humidity;BMP_temperature;BMP_pressure;BME280_temperature;BME280_humidity;BME280_pressure;Samples;Min_cycle;Max_cycle;Signal;HPM_P1;HPM_P2
2021/11/27 00:00:25;;;;;;;5.20;3.28;;;0.80;99.90;;;;;;5026750;28;20032;-67
2021/11/27 00:02:52;;;;;;;5.60;3.83;;;0.80;99.90;;;;;;5015205;28;20034;-68
2021/11/27 00:05:20;;;;;;;11.65;3.70;;;0.80;99.90;;;;;;5025202;28;20033;-68
2021/11/27 00:07:46;;;;;;;4.43;3.22;;;0.80;99.90;;;;;;5018675;28;20049;-67
2021/11/27 00:10:16;;;;;;;4.53;3.63;;;0.90;99.90;;;;;;5022625;28;20091;-67
2021/11/27 00:12:41;;;;;;;5.60;3.28;;;0.90;99.90;;;;;;5020423;28;20080;-68
2021/11/27 00:15:09;;;;;;;5.00;3.63;;;0.90;99.90;;;;;;5005577;28;20037;-68
2021/11/27 00:17:36;;;;;;;4.90;3.28;;;0.90;99.90;;;;;;5021495;28;20030;-68
2021/11/27 00:20:06;;;;;;;6.05;3.88;;;0.90;99.90;;;;;;5020595;28;20018;-68
2021/11/27 00:22:32;;;;;;;6.65;3.30;;;0.90;99.90;;;;;;5006802;28;20033;-68
2021/11/27 00:24:58;;;;;;;4.07;3.53;;;1.00;99.90;;;;;;5006167;28;20458;-68
2021/11/27 00:27:24;;;;;;;4.90;3.05;;;1.00;99.90;;;;;;5020548;28;20041;-67
2021/11/27 00:29:50;;;;;;;6.53;3.63;;;1.00;99.90;;;;;;5004364;28;20029;-68
2021/11/27 00:32:15;;;;;;;5.05;3.25;;;1.00;99.90;;;;;;5002773;28;20430;-68
2021/11/27 00:34:41;;;;;;;4.15;2.88;;;1.00;99.90;;;;;;5022940;28;20045;-68
2021/11/27 00:37:07;;;;;;;5.45;2.97;;;1.00;99.90;;;;;;5005290;28;20032;-67
2021/11/27 00:39:32;;;;;;;5.95;3.17;;;0.90;99.90;;;;;;5020786;28;20045;-68
2021/11/27 00:41:58;;;;;;;5.00;3.40;;;0.90;99.90;;;;;;5004457;28;20034;-67
2021/11/27 00:44:24;;;;;;;5.07;2.83;;;0.80;99.90;;;;;;5020428;28;20029;-68
2021/11/27 00:46:51;;;;;;;4.00;3.10;;;0.80;99.90;;;;;;5019257;28;20069;-68
2021/11/27 00:49:18;;;;;;;3.92;2.85;;;0.80;99.90;;;;;;5021871;28;20025;-68
2021/11/27 00:51:43;;;;;;;5.57;3.22;;;0.80;99.90;;;;;;5022687;28;20029;-67
2021/11/27 00:54:10;;;;;;;4.00;2.90;;;0.80;99.90;;;;;;5005149;28;20064;-68
2021/11/27 00:56:36;;;;;;;7.18;3.85;;;0.70;99.90;;;;;;5023360;28;20037;-68
2021/11/27 00:59:02;;;;;;;3.35;3.05;;;0.70;99.90;;;;;;5021059;28;20032;-68
2021/11/27 01:01:31;;;;;;;6.22;3.90;;;0.70;99.90;;;;;;5021364;28;20136;-67
2021/11/27 01:03:58;;;;;;;5.30;4.80;;;0.80;99.90;;;;;;5023518;28;20095;-67
2021/11/27 01:06:25;;;;;;;6.88;3.80;;;0.80;99.90;;;;;;5013411;28;20517;-68
2021/11/27 01:08:55;;;;;;;6.13;3.80;;;0.80;99.90;;;;;;4998251;28;20021;-68
2021/11/27 01:11:26;;;;;;;4.97;3.60;;;0.80;99.90;;;;;;5021282;28;20104;-67
2021/11/27 01:13:55;;;;;;;5.75;3.78;;;0.90;99.90;;;;;;5024265;28;20032;-67
2021/11/27 01:16:24;;;;;;;7.18;3.53;;;0.80;99.90;;;;;;5023138;28;20091;-67
2021/11/27 01:18:50;;;;;;;3.10;2.83;;;0.80;99.90;;;;;;5023709;28;20029;-67
2021/11/27 01:21:19;;;;;;;4.72;3.55;;;0.80;99.90;;;;;;5022164;28;20022;-67
2021/11/27 01:23:46;;;;;;;4.78;3.30;;;0.80;99.90;;;;;;5002959;28;20057;-68
2021/11/27 01:26:12;;;;;;;4.05;2.75;;;0.80;99.90;;;;;;5021331;28;20173;-69
2021/11/27 01:28:39;;;;;;;3.40;2.92;;;0.70;99.90;;;;;;5017146;28;20036;-68
2021/11/27 01:31:05;;;;;;;3.17;2.30;;;0.70;99.90;;;;;;5004789;28;20050;-68
2021/11/27 01:33:32;;;;;;;6.85;3.10;;;0.60;99.90;;;;;;5021880;28;20033;-68
2021/11/27 01:36:00;;;;;;;4.68;2.97;;;0.60;99.90;;;;;;5016130;28;20839;-68
2021/11/27 01:38:26;;;;;;;3.85;2.92;;;0.60;99.90;;;;;;5021879;28;20033;-69
2021/11/27 01:40:52;;;;;;;4.00;2.85;;;0.60;99.90;;;;;;5021235;28;20036;-68
2021/11/27 01:43:18;;;;;;;7.55;3.22;;;0.60;99.90;;;;;;5018193;28;20057;-68
2021/11/27 01:45:44;;;;;;;4.88;3.30;;;0.60;99.90;;;;;;5022238;28;20053;-68
2021/11/27 01:48:14;;;;;;;5.03;3.08;;;0.50;99.90;;;;;;5015627;28;20455;-69
2021/11/27 01:50:47;;;;;;;2.50;2.30;;;0.50;99.90;;;;;;5019161;28;20479;-68
2021/11/27 01:53:13;;;;;;;4.63;2.60;;;0.50;99.90;;;;;;5018823;28;20045;-68
2021/11/27 01:55:39;;;;;;;4.60;2.80;;;0.50;99.90;;;;;;5021068;28;20099;-69
2021/11/27 01:58:05;;;;;;;4.22;2.72;;;0.40;99.90;;;;;;5021412;28;20037;-68
2021/11/27 02:00:35;;;;;;;2.55;2.33;;;0.40;99.90;;;;;;5013366;28;20026;-69
2021/11/27 02:03:01;;;;;;;3.85;2.47;;;0.30;99.90;;;;;;5018760;28;20536;-68
2021/11/27 02:05:28;;;;;;;2.90;2.10;;;0.40;99.90;;;;;;5003096;28;20501;-68
2021/11/27 02:07:54;;;;;;;2.38;1.98;;;0.40;99.90;;;;;;5016063;28;20026;-68
2021/11/27 02:10:20;;;;;;;3.03;2.22;;;0.50;99.90;;;;;;5021524;28;20084;-68
2021/11/27 02:12:46;;;;;;;2.58;2.38;;;0.60;99.90;;;;;;5018520;28;20072;-68
2021/11/27 02:15:15;;;;;;;2.97;2.72;;;0.60;99.90;;;;;;5017962;28;20033;-68
2021/11/27 02:17:41;;;;;;;5.32;2.60;;;0.60;99.90;;;;;;5020233;28;20057;-68
2021/11/27 02:20:08;;;;;;;3.28;2.10;;;0.70;99.90;;;;;;5012759;28;20038;-68
2021/11/27 02:22:34;;;;;;;2.22;1.88;;;0.60;99.90;;;;;;5019400;28;20028;-68
2021/11/27 02:25:04;;;;;;;2.63;2.33;;;0.60;99.90;;;;;;5023463;28;20549;-68
2021/11/27 02:27:29;;;;;;;3.13;2.30;;;0.70;99.90;;;;;;5020373;28;20109;-69
2021/11/27 02:29:55;;;;;;;2.28;2.08;;;0.60;99.90;;;;;;5025689;28;20144;-68
2021/11/27 02:32:21;;;;;;;3.33;1.92;;;0.70;99.90;;;;;;5017710;28;20038;-68
2021/11/27 02:34:46;;;;;;;3.55;2.35;;;0.60;99.90;;;;;;5016328;28;20038;-68
2021/11/27 02:37:12;;;;;;;2.97;2.28;;;0.60;99.90;;;;;;5014993;28;20487;-68
2021/11/27 02:39:38;;;;;;;3.92;2.65;;;0.60;99.90;;;;;;5016357;28;20117;-68
2021/11/27 02:42:05;;;;;;;3.03;2.00;;;0.60;99.90;;;;;;5019867;28;20024;-68
2021/11/27 02:44:33;;;;;;;4.93;2.67;;;0.60;99.90;;;;;;5020904;28;20033;-68
2021/11/27 02:46:59;;;;;;;2.55;2.35;;;0.50;99.90;;;;;;5016517;28;20110;-68
2021/11/27 02:49:26;;;;;;;2.90;2.17;;;0.50;99.90;;;;;;5001082;28;20105;-68
2021/11/27 02:51:52;;;;;;;3.50;2.20;;;0.50;99.90;;;;;;5015712;28;20044;-68
2021/11/27 02:54:18;;;;;;;2.70;2.50;;;0.50;99.90;;;;;;5016511;28;20045;-68
2021/11/27 02:56:45;;;;;;;2.67;2.40;;;0.50;99.90;;;;;;5017875;28;20120;-69
2021/11/27 02:59:14;;;;;;;2.75;2.47;;;0.50;99.90;;;;;;5018933;28;20558;-68
2021/11/27 03:01:42;;;;;;;4.18;2.38;;;0.40;99.90;;;;;;5016975;28;20025;-68
2021/11/27 03:04:07;;;;;;;2.85;2.45;;;0.40;99.90;;;;;;5019133;28;20426;-68
2021/11/27 03:06:34;;;;;;;3.55;2.40;;;0.40;99.90;;;;;;5019230;28;20033;-69
2021/11/27 03:09:03;;;;;;;3.40;2.55;;;0.40;99.90;;;;;;5003003;28;20108;-68
2021/11/27 03:11:29;;;;;;;3.20;2.05;;;0.40;99.90;;;;;;4998775;28;20486;-68
2021/11/27 03:13:55;;;;;;;3.90;2.35;;;0.40;99.90;;;;;;5001695;28;20029;-68
2021/11/27 03:16:28;;;;;;;3.05;2.00;;;0.40;99.90;;;;;;5020149;28;20108;-68
2021/11/27 03:18:54;;;;;;;2.50;2.30;;;0.50;99.90;;;;;;4998998;28;20030;-68
2021/11/27 03:21:20;;;;;;;2.42;1.95;;;0.40;99.90;;;;;;5021807;28;20108;-68
2021/11/27 03:23:46;;;;;;;3.00;2.42;;;0.40;99.90;;;;;;5016213;28;20076;-69
2021/11/27 03:26:12;;;;;;;3.13;2.08;;;0.40;99.90;;;;;;5018035;28;20443;-68
2021/11/27 03:28:38;;;;;;;3.28;2.22;;;0.30;99.90;;;;;;5020064;28;20088;-67
2021/11/27 03:31:04;;;;;;;3.10;2.38;;;0.30;99.90;;;;;;4999414;28;20449;-68
2021/11/27 03:33:30;;;;;;;3.38;2.17;;;0.30;99.90;;;;;;5022073;28;20071;-68
2021/11/27 03:35:56;;;;;;;4.38;2.40;;;0.30;99.90;;;;;;5000421;28;20088;-68
2021/11/27 03:38:22;;;;;;;2.53;2.33;;;0.30;99.90;;;;;;4999948;28;20059;-68
2021/11/27 03:40:48;;;;;;;1.55;1.48;;;0.20;99.90;;;;;;5019780;28;20418;-68
2021/11/27 03:43:13;;;;;;;2.67;2.10;;;0.20;99.90;;;;;;5021314;28;20061;-68
2021/11/27 03:45:39;;;;;;;3.50;1.92;;;0.20;99.90;;;;;;5023650;28;20029;-68
2021/11/27 03:48:17;;;;;;;4.03;2.70;;;0.20;99.90;;;;;;5015675;28;20057;-69
2021/11/27 03:50:43;;;;;;;2.42;1.88;;;0.20;99.90;;;;;;5005493;28;20040;-68
2021/11/27 03:53:11;;;;;;;2.20;2.00;;;0.10;99.90;;;;;;5023568;28;20029;-68
2021/11/27 03:55:37;;;;;;;;;;;0.10;99.90;;;;;;5021904;28;20033;-68
2021/11/27 03:58:03;;;;;;;3.63;1.88;;;0.00;99.90;;;;;;5007529;28;19909;-68
2021/11/27 04:00:29;;;;;;;2.92;2.38;;;0.00;99.90;;;;;;5003763;28;20030;-68
2021/11/27 04:02:55;;;;;;;4.20;2.75;;;0.10;99.90;;;;;;5023239;28;20028;-68
2021/11/27 04:05:21;;;;;;;3.97;2.40;;;0.10;99.90;;;;;;5004039;28;20048;-68
2021/11/27 04:07:51;;;;;;;6.78;3.67;;;0.10;99.90;;;;;;5003621;28;20064;-68
2021/11/27 04:10:17;;;;;;;6.32;4.90;;;0.10;99.90;;;;;;5022646;28;20044;-68
2021/11/27 04:12:43;;;;;;;9.43;5.38;;;0.20;99.90;;;;;;5022342;28;20025;-68
2021/11/27 04:15:09;;;;;;;7.75;5.35;;;0.20;99.90;;;;;;5021299;28;20045;-68
2021/11/27 04:17:34;;;;;;;13.63;5.55;;;0.20;99.90;;;;;;5004385;28;20025;-68
2021/11/27 04:20:00;;;;;;;4.10;2.97;;;0.20;99.90;;;;;;5020714;28;20047;-68
2021/11/27 04:22:25;;;;;;;2.55;2.10;;;0.20;99.90;;;;;;5016671;28;20896;-68
2021/11/27 04:24:51;;;;;;;3.35;2.40;;;0.20;99.90;;;;;;5018815;28;20037;-68
2021/11/27 04:27:17;;;;;;;5.30;2.65;;;0.20;99.90;;;;;;5020870;28;20044;-68
2021/11/27 04:29:42;;;;;;;3.38;2.38;;;0.10;99.90;;;;;;5019216;28;20029;-68
2021/11/27 04:32:08;;;;;;;2.00;1.90;;;0.10;99.90;;;;;;5018584;28;20045;-68
2021/11/27 04:34:33;;;;;;;2.90;2.20;;;0.10;99.90;;;;;;5018398;28;20032;-68
2021/11/27 04:36:59;;;;;;;5.22;2.58;;;0.10;99.90;;;;;;5022911;28;20048;-68
2021/11/27 04:39:25;;;;;;;4.50;2.47;;;0.20;99.90;;;;;;5014226;28;20063;-68
2021/11/27 04:41:50;;;;;;;3.30;2.15;;;0.10;99.90;;;;;;5020670;28;20030;-68
2021/11/27 04:44:16;;;;;;;3.88;2.65;;;0.10;99.90;;;;;;5004800;28;20076;-68
2021/11/27 04:46:41;;;;;;;4.68;3.33;;;0.10;99.90;;;;;;5021264;28;20520;-68
2021/11/27 04:49:07;;;;;;;3.33;2.33;;;0.10;99.90;;;;;;5021113;28;20037;-68
2021/11/27 04:51:33;;;;;;;3.63;2.40;;;0.20;99.90;;;;;;5021899;28;20976;-69
2021/11/27 04:53:58;;;;;;;3.10;2.80;;;0.20;99.90;;;;;;5021963;28;20045;-67
2021/11/27 04:56:24;;;;;;;5.05;2.92;;;0.20;99.90;;;;;;5004375;28;20457;-68
2021/11/27 04:58:50;;;;;;;2.70;2.50;;;0.20;99.90;;;;;;5019740;28;20459;-68
2021/11/27 05:01:17;;;;;;;3.60;2.65;;;0.20;99.90;;;;;;5017177;28;20041;-68
2021/11/27 05:03:43;;;;;;;4.63;2.58;;;0.10;99.90;;;;;;5021043;28;20032;-68
2021/11/27 05:06:08;;;;;;;2.42;2.15;;;0.20;99.90;;;;;;5019179;28;20037;-68
2021/11/27 05:08:34;;;;;;;2.15;1.90;;;0.20;99.90;;;;;;5004421;28;20513;-68
2021/11/27 05:11:00;;;;;;;4.13;2.47;;;0.20;99.90;;;;;;5003207;28;20091;-68
2021/11/27 05:13:25;;;;;;;3.05;2.75;;;0.20;99.90;;;;;;5001875;28;20112;-68
2021/11/27 05:15:51;;;;;;;3.88;3.40;;;0.20;99.90;;;;;;5021292;28;21007;-68
2021/11/27 05:18:17;;;;;;;3.40;2.75;;;0.20;99.90;;;;;;5020905;28;20487;-68
2021/11/27 05:20:42;;;;;;;2.83;2.55;;;0.30;99.90;;;;;;5015767;28;20425;-68
2021/11/27 05:23:08;;;;;;;4.57;3.00;;;0.30;99.90;;;;;;5019145;28;20030;-68
2021/11/27 05:25:34;;;;;;;4.05;3.15;;;0.30;99.90;;;;;;5021120;28;20100;-68
2021/11/27 05:27:59;;;;;;;3.20;2.20;;;0.30;99.90;;;;;;5002004;28;20078;-68
2021/11/27 05:30:27;;;;;;;4.13;2.08;;;0.30;99.90;;;;;;5020800;28;20032;-68
2021/11/27 05:35:25;;;;;;;3.35;2.33;;;0.30;99.90;;;;;;5021050;28;20502;-68
2021/11/27 05:37:51;;;;;;;2.50;2.28;;;0.30;99.90;;;;;;5005372;28;20029;-68
2021/11/27 05:40:17;;;;;;;4.22;2.70;;;0.30;99.90;;;;;;5004105;28;20069;-68
2021/11/27 05:42:43;;;;;;;2.45;1.92;;;0.30;99.90;;;;;;5004958;28;20025;-68
2021/11/27 05:45:10;;;;;;;2.28;2.08;;;0.30;99.90;;;;;;5019749;28;20037;-68
2021/11/27 05:47:36;;;;;;;4.43;2.85;;;0.30;99.90;;;;;;5002981;28;20029;-68
2021/11/27 05:50:04;;;;;;;2.25;2.05;;;0.30;99.90;;;;;;5019222;28;20099;-68
2021/11/27 05:52:30;;;;;;;4.87;2.37;;;0.30;99.90;;;;;;5003039;28;20049;-68
2021/11/27 05:54:56;;;;;;;3.50;2.70;;;0.30;99.90;;;;;;5021806;28;20292;-68
2021/11/27 05:57:21;;;;;;;2.67;2.10;;;0.30;99.90;;;;;;5019891;28;20021;-68
2021/11/27 05:59:47;;;;;;;1.83;1.52;;;0.30;99.90;;;;;;5002017;28;20041;-68
2021/11/27 06:02:14;;;;;;;1.85;1.75;;;0.30;99.90;;;;;;5021929;28;21021;-68
2021/11/27 06:04:39;;;;;;;2.13;2.03;;;0.40;99.90;;;;;;5018784;28;20038;-68
2021/11/27 06:07:05;;;;;;;2.80;2.05;;;0.40;99.90;;;;;;5022064;28;20029;-68
2021/11/27 06:09:31;;;;;;;1.65;1.60;;;0.40;99.90;;;;;;5014853;28;20061;-68
2021/11/27 06:11:57;;;;;;;1.90;1.80;;;0.40;99.90;;;;;;5015180;28;20026;-68
2021/11/27 06:14:22;;;;;;;3.42;2.38;;;0.30;99.90;;;;;;5019218;28;20033;-68
2021/11/27 06:16:48;;;;;;;2.92;2.10;;;0.30;99.90;;;;;;5018544;28;20041;-69
2021/11/27 06:19:14;;;;;;;3.13;2.20;;;0.30;99.90;;;;;;5003095;28;20491;-68
2021/11/27 06:21:40;;;;;;;3.13;2.33;;;0.30;99.90;;;;;;5022274;28;20033;-69
2021/11/27 06:24:07;;;;;;;3.55;2.45;;;0.30;99.90;;;;;;5020158;28;20033;-69
2021/11/27 06:26:33;;;;;;;3.03;2.40;;;0.30;99.90;;;;;;5013843;28;21509;-68
2021/11/27 06:28:59;;;;;;;3.33;3.00;;;0.30;99.90;;;;;;5019996;28;20288;-68
2021/11/27 06:31:25;;;;;;;4.32;3.17;;;0.40;99.90;;;;;;5019079;28;20048;-68
2021/11/27 06:33:50;;;;;;;3.20;2.63;;;0.40;99.90;;;;;;5002346;28;20814;-68
2021/11/27 06:36:16;;;;;;;3.20;2.90;;;0.40;99.90;;;;;;5020106;28;20120;-68
2021/11/27 06:38:42;;;;;;;2.88;2.17;;;0.30;99.90;;;;;;5019857;28;20036;-69
2021/11/27 06:41:07;;;;;;;2.97;2.15;;;0.30;99.90;;;;;;5019932;28;20203;-68
2021/11/27 06:43:33;;;;;;;2.78;1.90;;;0.30;99.90;;;;;;5020678;28;20025;-68
2021/11/27 06:46:00;;;;;;;3.63;1.90;;;0.40;99.90;;;;;;5001331;28;20038;-68
2021/11/27 06:48:26;;;;;;;1.70;1.60;;;0.40;99.90;;;;;;4999934;28;20025;-68
2021/11/27 06:50:52;;;;;;;3.20;2.85;;;0.50;99.90;;;;;;5016957;28;20037;-68
2021/11/27 06:53:17;;;;;;;2.90;2.03;;;0.50;99.90;;;;;;5023666;28;20084;-68
2021/11/27 06:55:43;;;;;;;2.95;2.42;;;0.40;99.90;;;;;;5021160;28;20595;-68
2021/11/27 06:58:08;;;;;;;1.80;1.70;;;0.50;99.90;;;;;;5003933;28;20033;-68
2021/11/27 07:00:34;;;;;;;2.50;2.30;;;0.50;99.90;;;;;;5019891;28;20022;-68
2021/11/27 07:03:01;;;;;;;2.70;2.50;;;0.50;99.90;;;;;;5019344;28;20538;-68
2021/11/27 07:05:26;;;;;;;1.65;1.55;;;0.50;99.90;;;;;;5019533;28;20034;-68
2021/11/27 07:07:52;;;;;;;2.40;1.90;;;0.50;99.90;;;;;;5004900;28;20076;-68
2021/11/27 07:10:18;;;;;;;1.73;1.63;;;0.60;99.90;;;;;;5025401;28;20113;-68
2021/11/27 07:12:43;;;;;;;1.95;1.83;;;0.60;99.90;;;;;;5020821;28;20105;-68
2021/11/27 07:15:09;;;;;;;2.38;1.90;;;0.60;99.90;;;;;;5025504;28;20520;-68
2021/11/27 07:17:35;;;;;;;3.58;1.85;;;0.60;99.90;;;;;;5019224;28;20025;-68
2021/11/27 07:20:03;;;;;;;1.60;1.50;;;0.70;99.90;;;;;;5024805;28;20037;-68
2021/11/27 07:22:28;;;;;;;2.38;1.70;;;0.70;99.90;;;;;;5023998;28;20033;-69
2021/11/27 07:24:54;;;;;;;4.40;2.03;;;0.70;99.90;;;;;;5021287;28;20040;-68
2021/11/27 07:27:20;;;;;;;1.80;1.70;;;0.70;99.90;;;;;;5024981;28;20034;-68
2021/11/27 07:29:45;;;;;;;2.42;2.22;;;0.70;99.90;;;;;;5018433;28;20348;-69
2021/11/27 07:32:11;;;;;;;2.17;1.42;;;0.70;99.90;;;;;;5004864;28;20049;-68
2021/11/27 07:34:37;;;;;;;2.20;2.00;;;0.80;99.90;;;;;;5006511;28;20490;-68
2021/11/27 07:37:03;;;;;;;2.05;1.63;;;0.80;99.90;;;;;;5021793;28;20041;-68
2021/11/27 07:39:29;;;;;;;3.45;2.30;;;0.90;99.90;;;;;;5022679;28;20487;-69
2021/11/27 07:41:55;;;;;;;2.22;2.08;;;0.90;99.90;;;;;;5021006;28;20036;-68
2021/11/27 07:44:20;;;;;;;2.33;2.13;;;0.90;99.90;;;;;;5020184;28;20030;-68
2021/11/27 07:46:52;;;;;;;3.63;2.90;;;0.90;99.90;;;;;;5022249;28;20569;-68
2021/11/27 07:49:18;;;;;;;3.80;2.60;;;1.00;99.90;;;;;;5021006;28;20030;-68
2021/11/27 07:51:44;;;;;;;4.50;2.83;;;1.00;99.90;;;;;;5019300;28;20025;-68
2021/11/27 07:54:10;;;;;;;3.97;2.97;;;1.00;99.90;;;;;;5020067;28;20133;-68
2021/11/27 07:56:35;;;;;;;4.18;2.42;;;1.00;99.90;;;;;;5020495;28;20078;-69
2021/11/27 07:59:01;;;;;;;3.20;2.40;;;1.00;99.90;;;;;;5020052;28;20486;-68
2021/11/27 08:01:27;;;;;;;2.75;2.25;;;1.10;99.90;;;;;;5023571;28;20490;-68
2021/11/27 08:03:52;;;;;;;2.83;2.00;;;1.10;99.90;;;;;;5021731;28;20025;-68
2021/11/27 08:06:18;;;;;;;5.97;2.63;;;1.10;99.90;;;;;;5021510;28;20029;-68
2021/11/27 08:08:43;;;;;;;3.60;2.60;;;1.20;99.90;;;;;;5021058;28;20045;-68
2021/11/27 08:11:10;;;;;;;3.80;2.97;;;1.20;99.90;;;;;;5022277;28;20478;-69
2021/11/27 08:13:37;;;;;;;3.17;2.88;;;1.20;99.90;;;;;;5022703;28;20049;-68
2021/11/27 08:16:03;;;;;;;4.18;2.60;;;1.30;99.90;;;;;;5020653;28;20021;-68
2021/11/27 08:18:28;;;;;;;3.35;2.55;;;1.40;99.90;;;;;;5015630;28;20030;-69
2021/11/27 08:20:54;;;;;;;5.95;3.42;;;1.40;99.90;;;;;;5021849;28;20398;-69
2021/11/27 08:23:20;;;;;;;3.05;2.38;;;1.50;99.90;;;;;;5021541;28;20064;-68
2021/11/27 08:25:46;;;;;;;3.60;2.55;;;1.50;99.90;;;;;;5021704;28;20035;-69
2021/11/27 08:28:13;;;;;;;5.85;3.10;;;1.60;99.90;;;;;;5006878;28;20560;-68
2021/11/27 08:30:39;;;;;;;5.25;2.90;;;1.60;99.90;;;;;;5019509;28;20091;-69
2021/11/27 08:33:05;;;;;;;2.60;2.40;;;1.60;99.90;;;;;;5020638;28;20248;-68
2021/11/27 08:35:31;;;;;;;4.22;2.83;;;1.70;99.90;;;;;;5001004;28;20100;-69
2021/11/27 08:37:57;;;;;;;2.28;2.00;;;1.80;99.90;;;;;;5022596;28;20092;-68
2021/11/27 08:40:23;;;;;;;4.10;2.83;;;1.90;99.90;;;;;;5024955;28;20018;-68
2021/11/27 08:42:49;;;;;;;3.53;2.92;;;1.90;99.90;;;;;;5003085;28;20037;-68
2021/11/27 08:45:16;;;;;;;4.18;2.97;;;2.00;99.90;;;;;;5022586;28;20037;-68
2021/11/27 08:47:41;;;;;;;4.65;3.40;;;2.10;99.90;;;;;;5022849;28;20033;-69
2021/11/27 08:50:10;;;;;;;4.03;2.88;;;2.20;99.90;;;;;;5021420;28;20075;-68
2021/11/27 08:52:36;;;;;;;5.45;3.60;;;2.20;99.90;;;;;;5004308;28;20464;-68
2021/11/27 08:55:03;;;;;;;5.50;3.72;;;2.30;99.90;;;;;;5020889;28;20140;-69
2021/11/27 08:57:28;;;;;;;5.25;3.65;;;2.30;99.90;;;;;;5023007;28;20398;-68
2021/11/27 08:59:54;;;;;;;3.80;2.85;;;2.40;99.90;;;;;;5002112;28;20025;-69
2021/11/27 09:02:20;;;;;;;3.97;3.38;;;2.40;99.90;;;;;;5020420;28;20033;-69
2021/11/27 09:04:45;;;;;;;3.58;2.85;;;2.50;99.90;;;;;;5019344;28;20907;-69
2021/11/27 09:07:11;;;;;;;3.92;2.78;;;2.40;99.90;;;;;;5019743;28;20061;-68
2021/11/27 09:09:37;;;;;;;3.53;2.63;;;2.50;99.90;;;;;;5000399;28;20124;-69
2021/11/27 09:12:04;;;;;;;2.72;2.53;;;2.60;99.90;;;;;;5019831;28;20033;-68
2021/11/27 09:14:30;;;;;;;4.00;3.00;;;2.60;99.90;;;;;;5020824;28;20034;-69
2021/11/27 09:16:55;;;;;;;4.43;3.30;;;2.60;99.90;;;;;;5003503;28;20452;-68
2021/11/27 09:19:21;;;;;;;4.18;3.78;;;2.60;99.90;;;;;;5016861;28;20022;-69
2021/11/27 09:21:49;;;;;;;6.35;3.63;;;2.60;99.90;;;;;;5017182;28;20033;-67
2021/11/27 09:24:15;;;;;;;4.75;4.10;;;2.60;99.90;;;;;;5020962;28;20029;-68
2021/11/27 09:26:41;;;;;;;5.18;3.42;;;2.70;99.90;;;;;;5001821;28;20394;-68
2021/11/27 09:29:09;;;;;;;5.45;4.55;;;2.80;99.90;;;;;;4997507;28;20022;-68
2021/11/27 09:31:39;;;;;;;5.57;4.70;;;2.80;99.90;;;;;;5004546;28;20057;-68
2021/11/27 09:34:08;;;;;;;4.65;3.65;;;2.80;99.90;;;;;;5000752;28;20056;-69
2021/11/27 09:36:34;;;;;;;3.60;3.22;;;2.90;99.90;;;;;;5021724;28;20026;-68
2021/11/27 09:39:00;;;;;;;8.00;3.50;;;3.00;99.90;;;;;;5021309;28;20107;-68
2021/11/27 09:41:29;;;;;;;3.25;2.95;;;3.00;99.90;;;;;;5018869;28;20136;-68
2021/11/27 09:44:01;;;;;;;4.10;3.42;;;3.00;99.90;;;;;;5020704;28;20033;-68
2021/11/27 09:46:29;;;;;;;3.30;2.67;;;3.10;99.90;;;;;;4999418;28;20148;-68
2021/11/27 09:48:58;;;;;;;2.73;2.53;;;3.20;99.90;;;;;;5021068;28;20077;-68
2021/11/27 09:51:28;;;;;;;;;;;3.20;99.90;;;;;;5017980;28;20780;-68
2021/11/27 09:53:55;;;;;;;3.30;2.72;;;3.30;99.90;;;;;;5018067;28;19928;-68
2021/11/27 09:56:23;;;;;;;3.63;2.63;;;3.30;99.90;;;;;;5018445;28;20617;-68
2021/11/27 09:58:49;;;;;;;3.87;2.90;;;3.30;99.90;;;;;;5002310;28;20034;-68
2021/11/27 10:01:17;;;;;;;3.75;2.50;;;3.40;99.90;;;;;;5020562;28;20049;-68
2021/11/27 10:03:52;;;;;;;4.37;3.03;;;3.40;99.90;;;;;;5002188;28;20494;-68
2021/11/27 10:06:21;;;;;;;6.47;2.72;;;3.40;99.90;;;;;;4995874;28;20049;-68
2021/11/27 10:08:47;;;;;;;5.93;2.83;;;3.40;99.90;;;;;;5021124;28;20021;-69
2021/11/27 10:11:12;;;;;;;3.38;2.88;;;3.30;99.90;;;;;;5019854;28;20517;-69
2021/11/27 10:13:38;;;;;;;6.40;3.75;;;3.30;99.90;;;;;;5018759;28;20508;-69
2021/11/27 10:16:04;;;;;;;3.13;2.67;;;3.30;99.90;;;;;;5016516;28;20033;-68
2021/11/27 10:18:30;;;;;;;3.10;2.83;;;3.20;99.90;;;;;;5019283;28;20075;-68
2021/11/27 10:21:22;;;;;;;2.92;2.60;;;3.30;99.90;;;;;;5018171;28;20030;-68
2021/11/27 10:23:50;;;;;;;2.65;2.38;;;3.30;99.90;;;;;;5019212;28;20021;-68
2021/11/27 10:26:38;;;;;;;5.30;3.45;;;3.40;99.90;;;;;;5016969;28;20135;-68
2021/11/27 10:29:28;;;;;;;3.13;2.83;;;3.40;99.90;;;;;;5021640;28;20098;-68
2021/11/27 10:32:08;;;;;;;5.43;3.05;;;3.40;99.90;;;;;;5018437;28;20669;-68
2021/11/27 10:34:34;;;;;;;8.77;4.93;;;3.40;99.90;;;;;;5016546;28;20056;-68
2021/11/27 10:37:00;;;;;;;6.70;4.30;;;3.40;99.90;;;;;;5018317;28;20473;-67
2021/11/27 10:39:26;;;;;;;5.32;4.82;;;3.50;99.90;;;;;;5023756;28;20105;-67
2021/11/27 10:42:05;;;;;;;5.10;3.92;;;3.40;99.90;;;;;;5028699;28;20052;-67
2021/11/27 10:44:34;;;;;;;5.57;4.30;;;3.50;99.90;;;;;;5010548;28;20030;-69
2021/11/27 10:47:15;;;;;;;3.40;3.10;;;3.50;99.90;;;;;;5003244;28;20037;-68
2021/11/27 10:49:42;;;;;;;4.60;3.60;;;3.50;99.90;;;;;;5014084;28;20033;-68
2021/11/27 10:52:11;;;;;;;4.05;2.90;;;3.50;99.90;;;;;;5015393;28;20048;-69
2021/11/27 10:54:50;;;;;;;3.78;3.05;;;3.50;99.90;;;;;;5021720;28;20037;-68
2021/11/27 10:57:44;;;;;;;3.88;2.85;;;3.60;99.90;;;;;;5017788;28;20063;-68
2021/11/27 11:00:24;;;;;;;3.20;2.30;;;3.60;99.90;;;;;;4999046;28;20038;-68
2021/11/27 11:02:50;;;;;;;3.65;3.25;;;3.60;99.90;;;;;;5024988;28;20049;-69
2021/11/27 11:05:15;;;;;;;5.05;3.33;;;3.60;99.90;;;;;;5025852;28;20029;-68
2021/11/27 11:07:51;;;;;;;4.63;3.67;;;3.70;99.90;;;;;;5027412;28;20651;-68
2021/11/27 11:10:19;;;;;;;3.63;3.33;;;3.80;99.90;;;;;;5027742;28;20106;-68
2021/11/27 11:12:45;;;;;;;;;;;3.70;99.90;;;;;;5008897;28;20113;-68
2021/11/27 11:15:13;;;;;;;3.13;2.92;;;3.70;99.90;;;;;;5010557;28;20003;-68
2021/11/27 11:17:39;;;;;;;6.32;3.42;;;3.60;99.90;;;;;;5002556;28;20025;-68
2021/11/27 11:20:21;;;;;;;4.20;2.88;;;3.60;99.90;;;;;;5025154;28;20045;-68
2021/11/27 11:23:25;;;;;;;4.93;3.05;;;3.50;99.90;;;;;;5028278;28;20728;-68
2021/11/27 11:26:09;;;;;;;4.05;3.67;;;3.50;99.90;;;;;;5008300;28;20564;-68
2021/11/27 11:28:38;;;;;;;4.60;3.47;;;3.40;99.90;;;;;;5028206;28;20397;-68
2021/11/27 11:31:08;;;;;;;4.15;2.78;;;3.50;99.90;;;;;;5027791;28;20071;-68
2021/11/27 11:33:36;;;;;;;3.55;2.50;;;3.50;99.90;;;;;;5027856;28;20020;-68
2021/11/27 11:36:05;;;;;;;4.55;3.08;;;3.50;99.90;;;;;;5028997;28;20033;-68
2021/11/27 11:38:31;;;;;;;5.78;3.97;;;3.50;99.90;;;;;;5023093;28;20033;-68
2021/11/27 11:40:57;;;;;;;7.57;4.20;;;3.50;99.90;;;;;;5026701;28;20018;-68
2021/11/27 11:43:23;;;;;;;4.72;3.60;;;3.50;99.90;;;;;;5027157;28;20378;-68
2021/11/27 11:45:49;;;;;;;5.75;3.97;;;3.50;99.90;;;;;;5026762;28;20037;-68
2021/11/27 11:48:24;;;;;;;3.28;2.97;;;3.60;99.90;;;;;;5027282;28;20061;-68
2021/11/27 11:51:03;;;;;;;5.38;3.40;;;3.60;99.90;;;;;;5031934;28;20040;-69
2021/11/27 11:53:46;;;;;;;5.82;3.75;;;3.50;99.90;;;;;;5027157;28;20049;-68
2021/11/27 11:56:12;;;;;;;7.80;3.67;;;3.40;99.90;;;;;;5003599;28;20042;-68
2021/11/27 11:58:42;;;;;;;4.80;3.95;;;3.50;99.90;;;;;;5031333;28;20034;-68
2021/11/27 12:01:15;;;;;;;5.40;3.75;;;3.50;99.90;;;;;;5025660;28;20033;-69
2021/11/27 12:03:43;;;;;;;4.22;3.17;;;3.50;99.90;;;;;;5031802;28;20037;-68
2021/11/27 12:06:12;;;;;;;5.95;2.90;;;3.50;99.90;;;;;;5025513;28;20121;-68
2021/11/27 12:08:51;;;;;;;3.78;2.58;;;3.50;99.90;;;;;;5009308;28;20025;-68
2021/11/27 12:11:44;;;;;;;3.35;2.55;;;3.50;99.90;;;;;;5028181;28;20441;-68
2021/11/27 12:14:22;;;;;;;4.90;3.00;;;3.50;99.90;;;;;;5011710;28;20080;-68
2021/11/27 12:17:19;;;;;;;7.47;5.20;;;3.50;99.90;;;;;;5031336;28;20029;-68
2021/11/27 12:20:01;;;;;;;3.10;2.75;;;3.50;99.90;;;;;;5028457;28;20555;-67
2021/11/27 12:22:27;;;;;;;4.13;3.38;;;3.50;99.90;;;;;;5005867;28;20029;-68
2021/11/27 12:25:15;;;;;;;3.38;2.70;;;3.50;99.90;;;;;;5031604;28;20450;-69
2021/11/27 12:28:14;;;;;;;4.15;2.80;;;3.50;99.90;;;;;;5023754;28;20032;-68
2021/11/27 12:30:46;;;;;;;3.85;2.30;;;3.60;99.90;;;;;;4977144;28;20120;-68
2021/11/27 12:33:42;;;;;;;3.80;2.28;;;3.60;99.90;;;;;;5030853;28;20029;-68
2021/11/27 12:36:26;;;;;;;3.30;3.00;;;3.60;99.90;;;;;;5031208;28;20033;-68
2021/11/27 12:39:05;;;;;;;4.10;2.40;;;3.50;99.90;;;;;;5028011;28;20033;-69
2021/11/27 12:41:38;;;;;;;6.28;2.90;;;3.60;99.90;;;;;;5010502;28;20030;-68
2021/11/27 12:44:21;;;;;;;2.78;2.58;;;3.60;99.90;;;;;;5029308;28;20029;-68
2021/11/27 12:46:49;;;;;;;4.72;2.58;;;3.60;99.90;;;;;;5013327;28;20030;-68
2021/11/27 12:49:35;;;;;;;3.90;2.97;;;3.60;99.90;;;;;;5007377;28;20025;-69
2021/11/27 12:52:20;;;;;;;2.50;2.30;;;3.70;99.90;;;;;;5031099;28;20025;-68
2021/11/27 12:54:53;;;;;;;3.67;3.08;;;3.70;99.90;;;;;;5029305;28;20091;-68
2021/11/27 12:57:22;;;;;;;4.30;3.30;;;3.80;99.90;;;;;;5008628;28;20779;-68
2021/11/27 13:00:07;;;;;;;2.90;2.70;;;3.80;99.90;;;;;;5016924;28;20021;-68
2021/11/27 13:02:33;;;;;;;4.35;2.53;;;3.80;99.90;;;;;;5006401;28;20380;-68
2021/11/27 13:04:59;;;;;;;3.42;2.72;;;3.80;99.90;;;;;;5003962;28;20045;-69